Utopia — 9H8778 — position and weather

sailwx.info

Track history (hours):
 
Tides and Currents Weather Stations Pressure Air Temp Water Temp Dewpoint Dewpoint Depression Visibility Wind Speed Wind Dir Waves Ship Positions

Utopia

Last reported at 2015-Sep-14 15:31 UTC. Time now 2016-Feb-13 19:27 UTC.
Position N 35°59' E 014°25'.
Warning: this ship's position is months out of date.

Length 15 m.

Type: Sailing vessel. MMSI: 256000313.

Date/timePositionNaut miles runAvg speedWind from/ knotsBaromVisibWave heightAir tempDewpointWater temp
2015-Sep-14 15:31N 35°59' E 014°25'5 4.6
2015-Sep-14 14:31N 36°01' E 014°20'0 0.0
2015-Sep-14 13:31N 36°01' E 014°20'0 0.0
2015-Sep-14 12:28N 36°01' E 014°20'0 0.0
2015-Sep-14 11:31N 36°01' E 014°20'0 0.0
2015-Sep-14 10:31N 36°01' E 014°20'0 0.0
2015-Sep-14 09:25N 36°01' E 014°20'0 0.0
2015-Sep-14 08:31N 36°01' E 014°20'0 0.0
2015-Sep-14 07:28N 36°01' E 014°20'0 0.0
2015-Sep-14 06:31N 36°01' E 014°20'0 0.0
2015-Sep-14 05:28N 36°01' E 014°20'0 0.0
2015-Sep-14 04:31N 36°01' E 014°20'0 0.0
2015-Sep-14 03:31N 36°01' E 014°20'0 0.0
2015-Sep-14 02:28N 36°01' E 014°20'0 0.0
2015-Sep-14 01:31N 36°01' E 014°20'0 0.0
2015-Sep-14 00:31N 36°01' E 014°20'0 0.0
2015-Sep-13 23:31N 36°01' E 014°20'0 0.0
2015-Sep-13 22:28N 36°01' E 014°20'0 0.0
2015-Sep-13 21:28N 36°01' E 014°20'0 0.0
2015-Sep-13 20:31N 36°01' E 014°20'0 0.0
2015-Sep-13 19:28N 36°01' E 014°20'0 0.0
2015-Sep-13 18:28N 36°01' E 014°20'0 0.0
2015-Sep-13 17:31N 36°01' E 014°20'0 0.0
2015-Sep-13 16:28N 36°01' E 014°20'1 1.6
2015-Sep-13 15:33N 35°60' E 014°19'1 0.7
2015-Sep-13 14:32N 35°59' E 014°20'0 0.0
2015-Sep-13 13:26N 35°59' E 014°20'0 0.0
2015-Sep-13 12:32N 35°59' E 014°20'0 0.0
2015-Sep-13 11:26N 35°59' E 014°20'0 0.0
2015-Sep-13 10:26N 35°59' E 014°20'0 0.0
2015-Sep-13 09:32N 35°59' E 014°20'0 0.0
2015-Sep-13 08:32N 35°59' E 014°20'0 0.0
2015-Sep-13 07:32N 35°59' E 014°20'0 0.0
2015-Sep-13 06:32N 35°59' E 014°20'0 0.0
2015-Sep-13 05:29N 35°59' E 014°20'0 0.0
2015-Sep-13 04:32N 35°59' E 014°20'0 0.0
2015-Sep-13 03:32N 35°59' E 014°20'0 0.0
2015-Sep-13 02:29N 35°59' E 014°20'0 0.0
2015-Sep-13 01:29N 35°59' E 014°20'0 0.0
2015-Sep-13 00:32N 35°59' E 014°20'0 0.0
2015-Sep-12 23:32N 35°59' E 014°20'0 0.0
2015-Sep-12 22:32N 35°59' E 014°20'0 0.0
2015-Sep-12 21:26N 35°59' E 014°20'0 0.0
2015-Sep-12 20:32N 35°59' E 014°20'0 0.0
2015-Sep-12 19:32N 35°59' E 014°20'0 0.0
2015-Sep-12 18:26N 35°59' E 014°20'0 0.0
2015-Sep-12 17:32N 35°59' E 014°20'0 0.0
2015-Sep-12 16:32N 35°59' E 014°20'0 0.0
2015-Sep-12 15:32N 35°59' E 014°20'0 0.0
2015-Sep-12 14:32N 35°59' E 014°20'0 0.0
2015-Sep-12 13:32N 35°59' E 014°20'0 0.0
2015-Sep-12 12:29N 35°59' E 014°20'0 0.0
2015-Sep-12 11:32N 35°59' E 014°20'0 0.0
2015-Sep-12 10:32N 35°59' E 014°20'0 0.0
2015-Sep-12 09:32N 35°59' E 014°20'0 0.0
2015-Sep-12 08:29N 35°59' E 014°20'3 2.7
2015-Sep-12 07:26N 35°60' E 014°23'  
2015-Sep-07 15:15N 35°57' E 014°28'5 0.8
2015-Sep-07 08:31N 35°60' E 014°22'2 2.2
2015-Sep-07 07:32N 36°01' E 014°20'0 0.0
2015-Sep-07 06:32N 36°01' E 014°20'0 0.0
2015-Sep-07 05:32N 36°01' E 014°20'0 0.0
2015-Sep-07 04:32N 36°01' E 014°20'0 0.0
2015-Sep-07 03:32N 36°01' E 014°20'0 0.0
2015-Sep-07 02:32N 36°01' E 014°20'0 0.0
2015-Sep-07 01:32N 36°01' E 014°20'0 0.0
2015-Sep-07 00:29N 36°01' E 014°20'0 0.0
2015-Sep-06 23:32N 36°01' E 014°20'0 0.0
2015-Sep-06 23:14N 36°01' E 014°20'0 0.0
2015-Sep-06 22:32N 36°01' E 014°20'0 0.0
2015-Sep-06 21:32N 36°01' E 014°20'0 0.0
2015-Sep-06 20:32N 36°01' E 014°20'0 0.0
2015-Sep-06 19:32N 36°01' E 014°20'0 0.0
2015-Sep-06 18:32N 36°01' E 014°20'0 0.0
2015-Sep-06 17:32N 36°01' E 014°20'0 0.0
2015-Sep-06 16:32N 36°01' E 014°20'0 0.0
2015-Sep-06 15:29N 36°01' E 014°20'0 0.0
2015-Sep-06 14:29N 36°01' E 014°20'0 0.0
2015-Sep-06 13:32N 36°01' E 014°20'0 0.0
2015-Sep-06 12:32N 36°01' E 014°20'0 0.0
2015-Sep-06 11:29N 36°01' E 014°20'0 0.0
2015-Sep-06 10:32N 36°01' E 014°20'0 0.0
2015-Sep-06 09:29N 36°01' E 014°20'0 0.0
2015-Sep-06 08:32N 36°01' E 014°20'0 0.0
2015-Sep-06 07:32N 36°01' E 014°20'0 0.0
2015-Sep-06 06:32N 36°01' E 014°20'0 0.0
2015-Sep-06 05:29N 36°01' E 014°20'0 0.0
2015-Sep-06 04:29N 36°01' E 014°20'0 0.0
2015-Sep-06 03:32N 36°01' E 014°20'0 0.0
2015-Sep-06 02:29N 36°01' E 014°20'0 0.0
2015-Sep-06 01:20N 36°01' E 014°20'0 0.0
2015-Sep-06 00:32N 36°01' E 014°20'0 0.0
2015-Sep-05 23:29N 36°01' E 014°20'0 0.0
2015-Sep-05 22:29N 36°01' E 014°20'0 0.0
2015-Sep-05 21:32N 36°01' E 014°20'0 0.0
2015-Sep-05 20:32N 36°01' E 014°20'0 0.0
2015-Sep-05 19:32N 36°01' E 014°20'0 0.0
2015-Sep-05 18:32N 36°01' E 014°20'0 0.0
2015-Sep-05 17:32N 36°01' E 014°20'0 0.0
2015-Sep-05 16:23N 36°01' E 014°20'0 0.0
2015-Sep-05 15:26N 36°01' E 014°20'0 0.0
2015-Sep-05 14:32N 36°01' E 014°20'0 0.0
2015-Sep-05 13:29N 36°01' E 014°20'0 0.0
2015-Sep-05 12:32N 36°01' E 014°20'0 0.0
2015-Sep-05 11:32N 36°01' E 014°20'0 0.0
2015-Sep-05 10:32N 36°01' E 014°20'0 0.0
2015-Sep-05 09:29N 36°01' E 014°20'5 4.7
2015-Sep-05 08:30N 35°59' E 014°25'  
Track history (hours):
 
Tides and Currents Weather Stations Pressure Air Temp Water Temp Dewpoint Dewpoint Depression Visibility Wind Speed Wind Dir Waves Ship Positions

Utopia

Last reported at 2015-Sep-14 15:31 UTC. Time now 2016-Feb-13 19:27 UTC.
Position N 35°59' E 014°25'.
Warning: this ship's position is months out of date.

Length 15 m.

Type: Sailing vessel. MMSI: 256000313.

Date/timePositionNaut miles runAvg speedWind from/ knotsBaromVisibWave heightAir tempDewpointWater temp
2015-Sep-14 15:31N 35°59' E 014°25'5 4.6
2015-Sep-14 14:31N 36°01' E 014°20'0 0.0
2015-Sep-14 13:31N 36°01' E 014°20'0 0.0
2015-Sep-14 12:28N 36°01' E 014°20'0 0.0
2015-Sep-14 11:31N 36°01' E 014°20'0 0.0
2015-Sep-14 10:31N 36°01' E 014°20'0 0.0
2015-Sep-14 09:25N 36°01' E 014°20'0 0.0
2015-Sep-14 08:31N 36°01' E 014°20'0 0.0
2015-Sep-14 07:28N 36°01' E 014°20'0 0.0
2015-Sep-14 06:31N 36°01' E 014°20'0 0.0
2015-Sep-14 05:28N 36°01' E 014°20'0 0.0
2015-Sep-14 04:31N 36°01' E 014°20'0 0.0
2015-Sep-14 03:31N 36°01' E 014°20'0 0.0
2015-Sep-14 02:28N 36°01' E 014°20'0 0.0
2015-Sep-14 01:31N 36°01' E 014°20'0 0.0
2015-Sep-14 00:31N 36°01' E 014°20'0 0.0
2015-Sep-13 23:31N 36°01' E 014°20'0 0.0
2015-Sep-13 22:28N 36°01' E 014°20'0 0.0
2015-Sep-13 21:28N 36°01' E 014°20'0 0.0
2015-Sep-13 20:31N 36°01' E 014°20'0 0.0
2015-Sep-13 19:28N 36°01' E 014°20'0 0.0
2015-Sep-13 18:28N 36°01' E 014°20'0 0.0
2015-Sep-13 17:31N 36°01' E 014°20'0 0.0
2015-Sep-13 16:28N 36°01' E 014°20'1 1.6
2015-Sep-13 15:33N 35°60' E 014°19'1 0.7
2015-Sep-13 14:32N 35°59' E 014°20'0 0.0
2015-Sep-13 13:26N 35°59' E 014°20'0 0.0
2015-Sep-13 12:32N 35°59' E 014°20'0 0.0
2015-Sep-13 11:26N 35°59' E 014°20'0 0.0
2015-Sep-13 10:26N 35°59' E 014°20'0 0.0
2015-Sep-13 09:32N 35°59' E 014°20'0 0.0
2015-Sep-13 08:32N 35°59' E 014°20'0 0.0
2015-Sep-13 07:32N 35°59' E 014°20'0 0.0
2015-Sep-13 06:32N 35°59' E 014°20'0 0.0
2015-Sep-13 05:29N 35°59' E 014°20'0 0.0
2015-Sep-13 04:32N 35°59' E 014°20'0 0.0
2015-Sep-13 03:32N 35°59' E 014°20'0 0.0
2015-Sep-13 02:29N 35°59' E 014°20'0 0.0
2015-Sep-13 01:29N 35°59' E 014°20'0 0.0
2015-Sep-13 00:32N 35°59' E 014°20'0 0.0
2015-Sep-12 23:32N 35°59' E 014°20'0 0.0
2015-Sep-12 22:32N 35°59' E 014°20'0 0.0
2015-Sep-12 21:26N 35°59' E 014°20'0 0.0
2015-Sep-12 20:32N 35°59' E 014°20'0 0.0
2015-Sep-12 19:32N 35°59' E 014°20'0 0.0
2015-Sep-12 18:26N 35°59' E 014°20'0 0.0
2015-Sep-12 17:32N 35°59' E 014°20'0 0.0
2015-Sep-12 16:32N 35°59' E 014°20'0 0.0
2015-Sep-12 15:32N 35°59' E 014°20'0 0.0
2015-Sep-12 14:32N 35°59' E 014°20'0 0.0
2015-Sep-12 13:32N 35°59' E 014°20'0 0.0
2015-Sep-12 12:29N 35°59' E 014°20'0 0.0
2015-Sep-12 11:32N 35°59' E 014°20'0 0.0
2015-Sep-12 10:32N 35°59' E 014°20'0 0.0
2015-Sep-12 09:32N 35°59' E 014°20'0 0.0
2015-Sep-12 08:29N 35°59' E 014°20'3 2.7
2015-Sep-12 07:26N 35°60' E 014°23'  
2015-Sep-07 15:15N 35°57' E 014°28'5 0.8
2015-Sep-07 08:31N 35°60' E 014°22'2 2.2
2015-Sep-07 07:32N 36°01' E 014°20'0 0.0
2015-Sep-07 06:32N 36°01' E 014°20'0 0.0
2015-Sep-07 05:32N 36°01' E 014°20'0 0.0
2015-Sep-07 04:32N 36°01' E 014°20'0 0.0
2015-Sep-07 03:32N 36°01' E 014°20'0 0.0
2015-Sep-07 02:32N 36°01' E 014°20'0 0.0
2015-Sep-07 01:32N 36°01' E 014°20'0 0.0
2015-Sep-07 00:29N 36°01' E 014°20'0 0.0
2015-Sep-06 23:32N 36°01' E 014°20'0 0.0
2015-Sep-06 23:14N 36°01' E 014°20'0 0.0
2015-Sep-06 22:32N 36°01' E 014°20'0 0.0
2015-Sep-06 21:32N 36°01' E 014°20'0 0.0
2015-Sep-06 20:32N 36°01' E 014°20'0 0.0
2015-Sep-06 19:32N 36°01' E 014°20'0 0.0
2015-Sep-06 18:32N 36°01' E 014°20'0 0.0
2015-Sep-06 17:32N 36°01' E 014°20'0 0.0
2015-Sep-06 16:32N 36°01' E 014°20'0 0.0
2015-Sep-06 15:29N 36°01' E 014°20'0 0.0
2015-Sep-06 14:29N 36°01' E 014°20'0 0.0
2015-Sep-06 13:32N 36°01' E 014°20'0 0.0
2015-Sep-06 12:32N 36°01' E 014°20'0 0.0
2015-Sep-06 11:29N 36°01' E 014°20'0 0.0
2015-Sep-06 10:32N 36°01' E 014°20'0 0.0
2015-Sep-06 09:29N 36°01' E 014°20'0 0.0
2015-Sep-06 08:32N 36°01' E 014°20'0 0.0
2015-Sep-06 07:32N 36°01' E 014°20'0 0.0
2015-Sep-06 06:32N 36°01' E 014°20'0 0.0
2015-Sep-06 05:29N 36°01' E 014°20'0 0.0
2015-Sep-06 04:29N 36°01' E 014°20'0 0.0
2015-Sep-06 03:32N 36°01' E 014°20'0 0.0
2015-Sep-06 02:29N 36°01' E 014°20'0 0.0
2015-Sep-06 01:20N 36°01' E 014°20'0 0.0
2015-Sep-06 00:32N 36°01' E 014°20'0 0.0
2015-Sep-05 23:29N 36°01' E 014°20'0 0.0
2015-Sep-05 22:29N 36°01' E 014°20'0 0.0
2015-Sep-05 21:32N 36°01' E 014°20'0 0.0
2015-Sep-05 20:32N 36°01' E 014°20'0 0.0
2015-Sep-05 19:32N 36°01' E 014°20'0 0.0
2015-Sep-05 18:32N 36°01' E 014°20'0 0.0
2015-Sep-05 17:32N 36°01' E 014°20'0 0.0
2015-Sep-05 16:23N 36°01' E 014°20'0 0.0
2015-Sep-05 15:26N 36°01' E 014°20'0 0.0
2015-Sep-05 14:32N 36°01' E 014°20'0 0.0
2015-Sep-05 13:29N 36°01' E 014°20'0 0.0
2015-Sep-05 12:32N 36°01' E 014°20'0 0.0
2015-Sep-05 11:32N 36°01' E 014°20'0 0.0
2015-Sep-05 10:32N 36°01' E 014°20'0 0.0
2015-Sep-05 09:29N 36°01' E 014°20'5 4.7
2015-Sep-05 08:30N 35°59' E 014°25'  

Dump ship's entire track history